Pagina principale
METAR-TAF:

METAR-TAF

Aeroporti :

Pécs, Ungheria

latitudine: 46-06N, longitudine: 018-14E, altezza: 201 m

Osservazione

Il bollettino è stato emesso 10 ore e 32 minuti fa, alle 16:45 UTC
Vento 4 kt da ovest/sud-ovest
Temperature 10°C
Umidità 50%
Pressione 1017 hPa
Visibilità 10 km o più
Nubi sparse ad un'altezza di 4300 ft
Nubi sparse ad un'altezza di 8300 ft

METAR: LHPP 231645Z 24004KT 9999 SCT043 SCT083 10/00 Q1017

Ora: 04:17 (03:17 UTC)

Previsione

Il bollettino è stato emesso 13 ore e 2 minuti fa, alle 14:15 UTC
Previsione valida dal 23 alle 15 UTC al 23 alle 24 UTC
Vento 8 kt da sud-ovest
Visibilità 10 km o più
nessuna nube inferiore a 1500 m e nessun cumulonembo
Evoluzione graduale
dal 23 alle 17 UTC al 23 alle 20 UTC
Vento 14 kt da ovest con raffiche fino a 24 kt

TAF: LHPP 231415Z 2315/2324 23008KT CAVOK BECMG 2317/2320 27014G24KT

Osservazioni e previsioni meteorologiche di più di 4000 aeroporti (messaggi METAR e TAF).

Le stazioni disponibili sono rappresentate dai dischi gialli e rossi sulla carta.

Puntare il mouse per vedere il nome della stazione.

Clicca sopra per visualizzare le osservazioni e previsioni meteorologiche.

Per cambiare la mappa : fare clic sui pulsanti verdi con una croce nera per ingrandire, il pulsante verde con un trattino per diminuire, o sulla freccia verde per le mappe adiacenti.


METAR-TAF: